Buoy 41503

sailwx.info

Track history (hours):
 
Tides and Currents Weather Stations Pressure Air Temp Water Temp Dewpoint Dewpoint Depression Visibility Wind Speed Wind Dir Waves Ship Positions

Drifting buoy 41503

Last reported at 2014-Jul-23 01:41 UTC. Time now 2014-Jul-23 03:19 UTC.
Position N 31°24' W 063°05'.

Water temperature 27.4 ° C

Date/timePositionNaut miles runAvg speedWind from/ knotsBaromVisibWave heightAir tempDewpointWater temp
2014-Jul-23 01:41N 31°24' W 063°05'0 0.1 27.4
2014-Jul-23 00:14N 31°24' W 063°05'0 1.8 27.5
2014-Jul-23 00:10N 31°24' W 063°04'0 0.3 27.5
2014-Jul-22 23:59N 31°24' W 063°04'110.0 27.5
2014-Jul-22 23:54N 31°25' W 063°04'0 0.2 27.5
2014-Jul-22 21:51N 31°25' W 063°03'1 0.8 27.9
2014-Jul-22 21:11N 31°25' W 063°03'0 1.8 27.9
2014-Jul-22 21:07N 31°25' W 063°03'1 1.1 27.9
2014-Jul-22 20:13N 31°26' W 063°03'0 4.7 27.9
2014-Jul-22 20:12N 31°26' W 063°03'0 0.2 27.9
2014-Jul-22 19:28N 31°26' W 063°03'0 0.5 27.9
2014-Jul-22 18:40N 31°27' W 063°04'0 2.0 28.0
2014-Jul-22 18:34N 31°27' W 063°03'110.6 28.0
2014-Jul-22 18:28N 31°28' W 063°04'0 0.0 28.0
2014-Jul-22 16:58N 31°28' W 063°04'1 0.3 28.0
2014-Jul-22 15:10N 31°28' W 063°05'0 0.2 27.8
2014-Jul-22 14:25N 31°28' W 063°05'1 4.8 27.7
2014-Jul-22 14:12N 31°28' W 063°06'0 0.1 27.7
2014-Jul-22 12:40N 31°28' W 063°06'1 0.3 27.4
2014-Jul-22 10:37N 31°28' W 063°07'0 1.2 27.3
2014-Jul-22 10:22N 31°27' W 063°07'0 0.2 27.4
2014-Jul-22 09:48N 31°27' W 063°07'1 4.2 27.4
2014-Jul-22 09:39N 31°27' W 063°06'0 0.2 27.4
2014-Jul-22 08:59N 31°27' W 063°06'0 0.3 27.4
2014-Jul-22 08:04N 31°26' W 063°06'0 3.9 27.5
2014-Jul-22 07:58N 31°26' W 063°06'0 0.0 27.5
2014-Jul-22 07:14N 31°26' W 063°06'1 9.1 27.6
2014-Jul-22 07:08N 31°26' W 063°05'0 0.2 27.6
2014-Jul-22 05:32N 31°26' W 063°05'2 0.8 27.9
2014-Jul-22 02:42N 31°25' W 063°03'0 0.4 28.2
2014-Jul-22 01:58N 31°25' W 063°03'0 0.2 28.2
2014-Jul-22 01:10N 31°25' W 063°02'0 0.0 28.4
2014-Jul-22 01:06N 31°25' W 063°02'0 4.9 28.4
2014-Jul-22 01:01N 31°25' W 063°02'0 0.0 28.4
2014-Jul-22 00:20N 31°25' W 063°02'133.8 28.3
2014-Jul-22 00:19N 31°25' W 063°01'0 0.0 28.2
2014-Jul-21 23:26N 31°25' W 063°01'0 1.5 28.9
2014-Jul-21 23:11N 31°26' W 063°01'1 0.6 29.0
2014-Jul-21 22:13N 31°26' W 063°01'0 0.5 29.9
2014-Jul-21 21:27N 31°27' W 063°01'0 3.9 30.3
2014-Jul-21 21:23N 31°26' W 063°01'0 0.0 30.3
2014-Jul-21 21:19N 31°26' W 063°01'1 1.0 30.3
2014-Jul-21 20:38N 31°27' W 063°00'012.6 30.6
2014-Jul-21 20:36N 31°27' W 063°00'0 0.0 30.6
2014-Jul-21 19:43N 31°27' W 063°00'0 0.3 30.6
2014-Jul-21 18:52N 31°28' W 063°01'0 1.9 30.8
2014-Jul-21 18:43N 31°28' W 063°00'121.6 30.8
2014-Jul-21 18:40N 31°29' W 063°01'0 0.0 30.6
2014-Jul-21 17:58N 31°29' W 063°01'0 0.1 30.5
2014-Jul-21 17:11N 31°29' W 063°01'0 0.2 30.0
2014-Jul-21 15:30N 31°29' W 063°01'0 4.7 29.4
2014-Jul-21 15:26N 31°29' W 063°01'0 0.0
2014-Jul-21 14:44N 31°29' W 063°01'0 1.9 28.4
2014-Jul-21 14:35N 31°29' W 063°02'0 0.0 28.4
2014-Jul-21 13:51N 31°29' W 063°02'0 0.3 28.1
2014-Jul-21 13:03N 31°28' W 063°02'0 1.2 27.7
2014-Jul-21 12:57N 31°28' W 063°02'0 0.2 27.6
2014-Jul-21 12:06N 31°28' W 063°02'1 0.7 27.3
2014-Jul-21 10:58N 31°28' W 063°03'0 0.0 27.1
2014-Jul-21 10:54N 31°28' W 063°03'1 4.1 27.1
2014-Jul-21 10:43N 31°27' W 063°02'0 0.0 27.1
2014-Jul-21 09:57N 31°27' W 063°02'0 0.0
2014-Jul-21 09:56N 31°27' W 063°02'110.4 27.1
2014-Jul-21 09:53N 31°27' W 063°03'0 0.0 27.1
2014-Jul-21 09:13N 31°27' W 063°03'150.1 27.1
2014-Jul-21 09:12N 31°26' W 063°02'0 0.0 27.2
2014-Jul-21 08:20N 31°26' W 063°02'0 0.4 27.2
2014-Jul-21 08:13N 31°26' W 063°02'014.8 27.2
2014-Jul-21 08:11N 31°26' W 063°02'0 0.0 27.2
2014-Jul-21 07:36N 31°26' W 063°02'0 0.5 27.2
2014-Jul-21 07:27N 31°26' W 063°02'110.1 27.3
2014-Jul-21 07:19N 31°26' W 063°00'0 0.0 27.3
2014-Jul-21 05:42N 31°26' W 063°00'260.0 27.4
2014-Jul-21 05:40N 31°25' W 062°58'0 0.0 27.4
2014-Jul-21 03:08N 31°25' W 062°58'0 5.3 27.6
2014-Jul-21 03:04N 31°25' W 062°58'0 0.5 27.6
2014-Jul-21 02:21N 31°26' W 062°57'1 5.9 27.6
2014-Jul-21 02:11N 31°26' W 062°56'0 0.1 27.6
2014-Jul-21 01:27N 31°26' W 062°56'0 1.4 27.7
2014-Jul-21 01:22N 31°26' W 062°56'0 0.0 27.7
2014-Jul-21 00:42N 31°26' W 062°56'138.4 27.7
2014-Jul-21 00:41N 31°26' W 062°55'0 0.0 27.7
2014-Jul-20 23:48N 31°26' W 062°55'0 1.8 27.9
2014-Jul-20 23:41N 31°26' W 062°55'1 1.0 27.9
2014-Jul-20 22:34N 31°27' W 062°55'0 0.3 28.1
2014-Jul-20 21:58N 31°27' W 062°55'0 0.3 28.3
2014-Jul-20 21:28N 31°27' W 062°55'1 9.2 28.4
2014-Jul-20 21:24N 31°27' W 062°56'0 0.0 28.4
2014-Jul-20 20:58N 31°27' W 062°56'1 0.7 28.4
2014-Jul-20 19:54N 31°28' W 062°55'0 0.5 28.2
2014-Jul-20 19:19N 31°28' W 062°56'0 0.3 28.1
2014-Jul-20 18:56N 31°28' W 062°55'1 8.1 27.9
2014-Jul-20 18:52N 31°29' W 062°55'0 0.0 27.9
2014-Jul-20 18:11N 31°29' W 062°55'0 0.3 27.9
2014-Jul-20 17:23N 31°29' W 062°56'0 2.0 27.6
2014-Jul-20 17:13N 31°29' W 062°56'0 0.2
2014-Jul-20 15:49N 31°29' W 062°56'0 0.4 27.4
2014-Jul-20 15:39N 31°29' W 062°56'0 0.8 27.4
2014-Jul-20 15:05N 31°29' W 062°56'1 4.1 27.3
2014-Jul-20 14:54N 31°28' W 062°56'0 0.0 27.3
2014-Jul-20 14:13N 31°28' W 062°56'1 0.7 27.2
2014-Jul-20 13:21N 31°28' W 062°56'1 4.2 27.1
2014-Jul-20 13:13N 31°27' W 062°56'0 0.2
2014-Jul-20 12:27N 31°27' W 062°56'0 0.3 27.0
2014-Jul-20 11:24N 31°27' W 062°57'1 4.2 26.9
2014-Jul-20 11:16N 31°27' W 062°56'0 0.0 24.2
2014-Jul-20 10:11N 31°27' W 062°57'0 3.8 26.9
2014-Jul-20 10:05N 31°27' W 062°56'0 9.3 26.9
2014-Jul-20 10:02N 31°26' W 062°57'0 0.0 26.9
2014-Jul-20 09:45N 31°26' W 062°57'0 0.8 26.9
2014-Jul-20 09:39N 31°26' W 062°57'114.1 26.9
2014-Jul-20 09:35N 31°26' W 062°56'0 0.0 26.9
2014-Jul-20 08:27N 31°26' W 062°56'0 1.3 27.0
2014-Jul-20 08:05N 31°26' W 062°55'0 6.0 27.0
2014-Jul-20 08:02N 31°26' W 062°55'0 0.3 27.0
2014-Jul-20 07:39N 31°26' W 062°55'1 8.2 27.0
2014-Jul-20 07:33N 31°25' W 062°54'0 9.5 27.0
2014-Jul-20 07:31N 31°25' W 062°54'0 0.0 27.0
2014-Jul-20 06:47N 31°25' W 062°54'0 0.1 27.0
2014-Jul-20 05:54N 31°25' W 062°54'342.6 27.1
2014-Jul-20 05:50N 31°24' W 062°51'1 0.2 27.1
2014-Jul-20 01:42N 31°25' W 062°50'0 0.0 27.3
2014-Jul-20 01:04N 31°25' W 062°50'0 2.4 27.4
2014-Jul-20 01:02N 31°25' W 062°50'1 6.9 27.4
2014-Jul-20 00:55N 31°25' W 062°49'0 0.0 27.4
2014-Jul-20 00:11N 31°25' W 062°49'0 0.0 27.3
2014-Jul-20 00:10N 31°25' W 062°49'1 9.0 27.3
2014-Jul-20 00:06N 31°26' W 062°49'0 0.1 27.3
2014-Jul-19 22:28N 31°26' W 062°49'1 1.0 27.4
2014-Jul-19 21:43N 31°26' W 062°48'0 0.7 27.4
2014-Jul-19 21:27N 31°26' W 062°48'1 0.5 27.5
2014-Jul-19 19:58N 31°27' W 062°49'1 3.2 27.5
2014-Jul-19 19:46N 31°27' W 062°49'0 0.0 27.5
2014-Jul-19 19:12N 31°27' W 062°49'0 1.5
2014-Jul-19 19:10N 31°27' W 062°49'0 0.3 27.4
2014-Jul-19 18:23N 31°27' W 062°49'0 0.2 27.4
2014-Jul-19 17:33N 31°27' W 062°49'0 0.6 27.3
2014-Jul-19 17:28N 31°27' W 062°49'0 0.3 27.3
2014-Jul-19 16:08N 31°27' W 062°50'0 0.0 27.2
2014-Jul-19 15:51N 31°27' W 062°50'0 0.9 27.1
2014-Jul-19 15:24N 31°27' W 062°50'0 2.7 27.1
2014-Jul-19 15:17N 31°27' W 062°50'0 0.0 27.1
2014-Jul-19 14:33N 31°27' W 062°50'1 0.8 26.9
2014-Jul-19 13:47N 31°26' W 062°50'1 3.0 26.9
2014-Jul-19 13:35N 31°26' W 062°50'0 0.0 26.9
2014-Jul-19 12:47N 31°26' W 062°50'114.0 26.8
2014-Jul-19 12:43N 31°25' W 062°51'0 0.0
2014-Jul-19 11:52N 31°25' W 062°51'0 0.0 26.7
2014-Jul-19 11:46N 31°25' W 062°51'1 0.6 26.7
2014-Jul-19 10:22N 31°24' W 062°50'1 4.4 26.7
2014-Jul-19 10:14N 31°24' W 062°49'0 0.0 26.7
2014-Jul-19 10:11N 31°24' W 062°49'0 1.4 26.7
2014-Jul-19 10:04N 31°24' W 062°50'1 0.8 26.7
2014-Jul-19 08:42N 31°23' W 062°49'0 0.8 26.7
2014-Jul-19 08:38N 31°23' W 062°49'0 2.0 26.7
2014-Jul-19 08:33N 31°23' W 062°49'0 0.0 26.7
2014-Jul-19 08:26N 31°23' W 062°49'1 1.2 26.7
2014-Jul-19 07:49N 31°23' W 062°48'0 3.8 26.7
2014-Jul-19 07:45N 31°23' W 062°48'111.3 26.7
2014-Jul-19 07:42N 31°23' W 062°47'0 0.1 26.7
2014-Jul-19 06:58N 31°23' W 062°47'0 0.4 26.7
2014-Jul-19 06:09N 31°22' W 062°47'0 4.6 26.8
2014-Jul-19 06:05N 31°22' W 062°46'3 1.5 26.8
2014-Jul-19 04:25N 31°22' W 062°43'0 0.0 26.8
2014-Jul-19 02:59N 31°22' W 062°43'0 0.0 26.8
2014-Jul-19 02:11N 31°22' W 062°43'0 1.0 26.9
2014-Jul-19 02:04N 31°22' W 062°44'0 0.4 26.9
2014-Jul-19 01:24N 31°22' W 062°44'0 0.0 26.9
2014-Jul-19 01:23N 31°22' W 062°44'1 1.5 26.9
2014-Jul-19 00:39N 31°23' W 062°43'120.1 26.9
2014-Jul-19 00:37N 31°23' W 062°42'1 3.8 26.9
2014-Jul-19 00:27N 31°23' W 062°43'0 0.0 26.9
2014-Jul-19 00:26N 31°23' W 062°43'1 0.8 26.9
2014-Jul-18 23:41N 31°23' W 062°42'0 0.0 26.9
2014-Jul-18 23:05N 31°23' W 062°42'0 0.3 26.9
2014-Jul-18 21:53N 31°23' W 062°42'0 0.0 26.9
2014-Jul-18 21:52N 31°23' W 062°42'1 0.3 26.9
2014-Jul-18 20:12N 31°24' W 062°42'024.6 26.9
2014-Jul-18 20:11N 31°24' W 062°43'0 2.1 26.9
2014-Jul-18 20:05N 31°24' W 062°43'0 0.0 26.9
2014-Jul-18 19:24N 31°24' W 062°43'0 4.1 26.9
2014-Jul-18 19:21N 31°24' W 062°43'0 0.1 26.9
2014-Jul-18 18:35N 31°24' W 062°43'1 0.7 26.9
2014-Jul-18 17:45N 31°24' W 062°44'0 0.2 26.9
2014-Jul-18 16:03N 31°23' W 062°43'0 1.5 26.7
2014-Jul-18 15:45N 31°23' W 062°43'0 0.8 26.7
2014-Jul-18 15:39N 31°23' W 062°43'0 0.6 26.7
2014-Jul-18 14:54N 31°23' W 062°44'0 0.6 26.6
2014-Jul-18 14:07N 31°22' W 062°44'212.4 26.6
2014-Jul-18 13:57N 31°20' W 062°43'0 0.1 26.6
2014-Jul-18 10:36N 31°20' W 062°43'0 0.0 26.5
2014-Jul-18 10:33N 31°20' W 062°43'0 3.2 26.5
2014-Jul-18 10:27N 31°20' W 062°43'172.7 26.5
2014-Jul-18 10:26N 31°19' W 062°43'0 0.0 26.5
2014-Jul-18 09:09N 31°19' W 062°43'1 3.2 26.5
2014-Jul-18 08:55N 31°19' W 062°42'1 8.2 26.5
2014-Jul-18 08:51N 31°19' W 062°42'0 0.0 26.5
2014-Jul-18 08:45N 31°19' W 062°42'0 0.0 26.5
2014-Jul-18 08:42N 31°19' W 062°42'0 0.0 26.5
2014-Jul-18 08:01N 31°19' W 062°42'0 3.9 26.5
2014-Jul-18 07:57N 31°19' W 062°42'1 8.3 26.5
2014-Jul-18 07:53N 31°18' W 062°41'0 0.0 26.5
2014-Jul-18 07:07N 31°18' W 062°41'013.3 26.5
2014-Jul-18 07:05N 31°18' W 062°41'0 0.0 26.5
2014-Jul-18 06:24N 31°18' W 062°41'0 0.0 26.6
2014-Jul-18 06:21N 31°18' W 062°41'1 9.6 26.6
2014-Jul-18 06:12N 31°18' W 062°39'0 0.0 26.6
2014-Jul-18 04:37N 31°18' W 062°39'1 0.7 26.6
2014-Jul-18 02:27N 31°18' W 062°38'111.3 26.6
2014-Jul-18 02:24N 31°18' W 062°37'0 0.0 26.6
2014-Jul-18 01:43N 31°18' W 062°37'0 0.3 26.6
2014-Jul-18 00:51N 31°18' W 062°37'0 0.0 26.6
2014-Jul-18 00:48N 31°18' W 062°37'0 0.2 26.6
2014-Jul-18 00:04N 31°18' W 062°37'0 2.4 26.7
2014-Jul-17 23:58N 31°18' W 062°37'0 2.6 26.7
2014-Jul-17 23:55N 31°18' W 062°37'0 0.0 26.7
2014-Jul-17 23:35N 31°18' W 062°37'0 0.6 26.7
2014-Jul-17 23:09N 31°18' W 062°37'0 0.0 26.7
2014-Jul-17 22:13N 31°18' W 062°37'1 4.8 26.7
2014-Jul-17 22:05N 31°18' W 062°38'1 3.5 26.7
2014-Jul-17 21:56N 31°18' W 062°37'1 0.4 26.7
2014-Jul-17 20:36N 31°18' W 062°38'0 0.0 26.8
2014-Jul-17 20:27N 31°18' W 062°38'0 6.2 26.8
2014-Jul-17 20:23N 31°18' W 062°38'1 0.7 26.8
2014-Jul-17 19:30N 31°17' W 062°38'0 0.0 26.8
2014-Jul-17 18:52N 31°17' W 062°38'112.7 26.8
2014-Jul-17 18:46N 31°17' W 062°37'1 0.9 26.8
2014-Jul-17 17:55N 31°17' W 062°37'2 1.0 26.7
2014-Jul-17 16:13N 31°16' W 062°39'1 0.7 26.6
2014-Jul-17 15:12N 31°15' W 062°38'0 0.5 26.6
2014-Jul-17 14:27N 31°15' W 062°38'1 0.8 26.6
2014-Jul-17 12:37N 31°14' W 062°38'0 0.0 26.6
2014-Jul-17 11:19N 31°14' W 062°38'0 0.8 26.6
2014-Jul-17 11:00N 31°13' W 062°38'0 2.1 26.6
2014-Jul-17 10:50N 31°14' W 062°38'0 0.9 26.6
2014-Jul-17 10:42N 31°14' W 062°38'114.5 26.6
2014-Jul-17 10:38N 31°13' W 062°37'0 0.3 26.6
2014-Jul-17 09:18N 31°12' W 062°37'0 0.9 26.6
2014-Jul-17 09:07N 31°13' W 062°37'1 2.6 26.6
2014-Jul-17 08:54N 31°12' W 062°37'0 0.0 26.6
2014-Jul-17 08:12N 31°12' W 062°37'0 3.3 26.6
2014-Jul-17 08:09N 31°12' W 062°37'0 6.7 26.6
2014-Jul-17 08:05N 31°12' W 062°37'0 3.6 26.6
2014-Jul-17 07:59N 31°12' W 062°37'0 0.6 26.6
2014-Jul-17 07:21N 31°12' W 062°37'111.3 26.6
2014-Jul-17 07:18N 31°12' W 062°36'110.8 26.6
2014-Jul-17 07:14N 31°11' W 062°36'0 0.2 26.6
2014-Jul-17 06:27N 31°11' W 062°36'0 4.9 26.6
2014-Jul-17 06:24N 31°11' W 062°36'0 0.0 26.6
2014-Jul-17 06:21N 31°11' W 062°36'0 0.0 26.6
2014-Jul-17 04:49N 31°11' W 062°36'1 0.3 26.6
2014-Jul-17 02:51N 31°10' W 062°35'0 5.7 26.6
2014-Jul-17 02:46N 31°10' W 062°35'0 0.3 26.6
2014-Jul-17 02:05N 31°10' W 062°35'0 0.1 26.6
2014-Jul-17 01:12N 31°10' W 062°35'0 1.9 26.6
2014-Jul-17 01:04N 31°10' W 062°34'0 0.2 26.6
2014-Jul-17 00:24N 31°10' W 062°35'021.9 26.6
2014-Jul-17 00:23N 31°10' W 062°34'1 1.8 26.6
2014-Jul-17 00:06N 31°11' W 062°35'0 0.0 26.6
2014-Jul-16 23:27N 31°11' W 062°35'0 0.6 26.6
2014-Jul-16 22:39N 31°10' W 062°35'0 0.8 26.7
2014-Jul-16 22:27N 31°10' W 062°34'1 0.6 26.7
2014-Jul-16 21:02N 31°10' W 062°35'1 3.2 26.7
2014-Jul-16 20:45N 31°10' W 062°35'0 0.0 26.7
2014-Jul-16 20:39N 31°10' W 062°35'0 0.0 26.7
2014-Jul-16 20:36N 31°10' W 062°35'0 0.4 26.7
2014-Jul-16 19:44N 31°10' W 062°35'0 0.6 26.7
2014-Jul-16 19:20N 31°10' W 062°35'1 1.6 26.7
2014-Jul-16 18:58N 31°10' W 062°35'1 5.7 26.7
2014-Jul-16 18:51N 31°10' W 062°35'1 1.0 26.7
2014-Jul-16 18:07N 31°10' W 062°35'1 0.4 26.7
2014-Jul-16 16:25N 31°10' W 062°36'114.4 26.7
2014-Jul-16 16:20N 31°09' W 062°37'0 0.5 26.7
2014-Jul-16 15:33N 31°09' W 062°37'0 0.6 26.7
2014-Jul-16 14:47N 31°09' W 062°36'1 0.7 26.7
2014-Jul-16 13:55N 31°09' W 062°37'0 0.2 26.7
2014-Jul-16 13:05N 31°09' W 062°37'1 9.0 26.7
2014-Jul-16 13:00N 31°08' W 062°37'0 0.4 26.7
2014-Jul-16 12:10N 31°08' W 062°38'0 0.9 26.7
2014-Jul-16 11:48N 31°08' W 062°37'0 0.8 26.7
2014-Jul-16 11:23N 31°08' W 062°38'0 0.3 26.7
2014-Jul-16 10:54N 31°08' W 062°38'1 7.2 26.7
2014-Jul-16 10:49N 31°07' W 062°37'0 0.0 26.7
2014-Jul-16 10:11N 31°07' W 062°37'131.3 26.7
2014-Jul-16 10:10N 31°07' W 062°38'0 0.0 26.7
2014-Jul-16 09:43N 31°07' W 062°38'0 3.6 26.8
2014-Jul-16 09:37N 31°07' W 062°38'0 0.0 26.8
2014-Jul-16 09:34N 31°07' W 062°38'0 0.6 26.8
2014-Jul-16 09:13N 31°07' W 062°37'1 5.8 26.8
2014-Jul-16 09:07N 31°06' W 062°38'0 0.2 26.8
2014-Jul-16 08:21N 31°06' W 062°38'1 0.8 26.8
2014-Jul-16 07:33N 31°06' W 062°38'0 4.8 26.8
2014-Jul-16 07:30N 31°05' W 062°37'1 0.7 26.8
2014-Jul-16 06:43N 31°05' W 062°38'1 9.8 26.9
2014-Jul-16 06:34N 31°04' W 062°38'0 0.0 26.9
2014-Jul-16 05:02N 31°04' W 062°38'0 1.0 26.9
2014-Jul-16 04:59N 31°04' W 062°38'1 0.4 26.9
2014-Jul-16 03:10N 31°03' W 062°37'0 6.7 26.9
2014-Jul-16 03:06N 31°03' W 062°36'0 0.0 26.9
2014-Jul-16 02:25N 31°03' W 062°36'1 1.0 26.9
2014-Jul-16 01:27N 31°03' W 062°35'144.5 26.9
2014-Jul-16 01:26N 31°03' W 062°36'0 0.0 26.9
2014-Jul-16 00:46N 31°03' W 062°36'0 5.9 26.9
2014-Jul-16 00:44N 31°03' W 062°36'1 3.4 26.9
2014-Jul-16 00:33N 31°03' W 062°36'0 0.3 26.9
2014-Jul-15 23:52N 31°02' W 062°36'0 0.5 26.9
2014-Jul-15 22:57N 31°03' W 062°36'0 0.1 26.9
2014-Jul-15 21:26N 31°03' W 062°36'0 0.3 27.0
2014-Jul-15 20:51N 31°03' W 062°36'0 1.0 27.0
2014-Jul-15 20:45N 31°03' W 062°36'0 1.0 27.0
2014-Jul-15 20:38N 31°03' W 062°36'0 0.0 27.0
2014-Jul-15 19:46N 31°03' W 062°36'1 1.0 27.0
2014-Jul-15 19:10N 31°03' W 062°36'0 0.3 27.1
2014-Jul-15 18:13N 31°03' W 062°37'1 0.4 27.1
2014-Jul-15 16:36N 31°03' W 062°37'1 0.9 27.2
2014-Jul-15 15:53N 31°03' W 062°38'1 0.7 27.2
2014-Jul-15 15:08N 31°03' W 062°38'1 3.3 27.2
2014-Jul-15 14:58N 31°02' W 062°38'0 0.0 27.2
2014-Jul-15 14:13N 31°02' W 062°38'1 0.8 27.2
2014-Jul-15 13:27N 31°02' W 062°39'1 0.7 27.3
2014-Jul-15 12:29N 31°01' W 062°40'3 3.4 27.3
2014-Jul-15 11:44N 30°59' W 062°39'0 0.0 27.3
2014-Jul-15 11:03N 30°59' W 062°39'0 0.0 27.3
2014-Jul-15 10:41N 30°59' W 062°39'0 0.6 27.3
2014-Jul-15 10:12N 30°59' W 062°39'0 0.0 27.3
2014-Jul-15 10:09N 30°59' W 062°39'0 1.5 27.3
2014-Jul-15 10:07N 30°59' W 062°39'0 2.8 27.3
2014-Jul-15 10:02N 30°59' W 062°39'0 0.0 27.3
2014-Jul-15 09:26N 30°59' W 062°39'0 5.2 27.3
2014-Jul-15 09:21N 30°59' W 062°39'1 2.2 27.3
2014-Jul-15 09:02N 30°58' W 062°39'0 0.7 27.3
2014-Jul-15 08:33N 30°58' W 062°39'1 4.0 27.4
2014-Jul-15 08:25N 30°58' W 062°38'1 0.8 27.4
2014-Jul-15 07:41N 30°58' W 062°39'1 0.8 27.4
2014-Jul-15 06:53N 30°58' W 062°38'1 7.3 27.4
2014-Jul-15 06:43N 30°57' W 062°37'0 0.0 27.4
2014-Jul-15 05:11N 30°57' W 062°37'2 0.5 27.4
2014-Jul-15 01:46N 30°57' W 062°35'0 0.1 27.5
2014-Jul-15 01:06N 30°57' W 062°36'029.8 27.5
2014-Jul-15 01:05N 30°57' W 062°35'0 0.2 27.5
2014-Jul-15 00:12N 30°57' W 062°35'1 0.7 27.5
2014-Jul-14 23:27N 30°57' W 062°35'0 1.4 27.5
2014-Jul-14 23:19N 30°57' W 062°35'0 0.1
2014-Jul-14 21:49N 30°57' W 062°35'0 0.0 27.6
2014-Jul-14 21:44N 30°57' W 062°35'0 0.4 27.6
2014-Jul-14 21:01N 30°57' W 062°35'0 0.0 27.5
2014-Jul-14 20:57N 30°57' W 062°35'0 0.3 27.5
2014-Jul-14 20:10N 30°57' W 062°35'0 0.4 27.6
2014-Jul-14 19:22N 30°58' W 062°35'0 0.0 27.6
2014-Jul-14 19:19N 30°58' W 062°35'0 0.1 27.6
2014-Jul-14 18:27N 30°58' W 062°35'0 1.2 27.5
2014-Jul-14 18:22N 30°58' W 062°35'1 0.4 27.5
2014-Jul-14 16:47N 30°58' W 062°36'0 0.1 27.4
2014-Jul-14 16:11N 30°58' W 062°35'1 0.7 27.4
2014-Jul-14 15:27N 30°57' W 062°36'0 1.2 27.4
2014-Jul-14 15:21N 30°57' W 062°36'0 0.3 27.4
2014-Jul-14 14:37N 30°57' W 062°36'0 0.5 27.3
2014-Jul-14 13:49N 30°57' W 062°36'1 8.5 27.3
2014-Jul-14 13:39N 30°56' W 062°37'1 1.3 27.3
2014-Jul-14 12:55N 30°56' W 062°36'114.7 27.3
2014-Jul-14 12:51N 30°56' W 062°37'0 0.0 27.3
2014-Jul-14 11:13N 30°56' W 062°37'0 0.6 27.3
2014-Jul-14 10:35N 30°55' W 062°37'0 0.0 27.3
2014-Jul-14 10:33N 30°55' W 062°37'0 3.6 27.3
2014-Jul-14 10:31N 30°55' W 062°37'113.0 27.3
2014-Jul-14 10:26N 30°54' W 062°37'0 0.5 27.3
2014-Jul-14 09:35N 30°54' W 062°36'0 0.0 27.4
2014-Jul-14 09:31N 30°54' W 062°36'0 0.0 27.4
2014-Jul-14 08:47N 30°54' W 062°36'1 6.2 27.5
2014-Jul-14 08:40N 30°53' W 062°36'0 0.5 27.5
2014-Jul-14 07:52N 30°53' W 062°37'114.8 27.6
2014-Jul-14 07:49N 30°53' W 062°36'0 0.0 27.6
2014-Jul-14 07:05N 30°53' W 062°36'110.3 27.6
2014-Jul-14 06:57N 30°52' W 062°35'0 0.0 27.6
2014-Jul-14 05:22N 30°52' W 062°35'214.4 27.6
2014-Jul-14 05:13N 30°51' W 062°33'0 0.0 27.6
2014-Jul-14 03:00N 30°51' W 062°33'0 0.0 27.7
2014-Jul-14 02:12N 30°51' W 062°33'0 1.5 27.8
2014-Jul-14 02:08N 30°51' W 062°32'1 1.2 27.8
2014-Jul-14 01:25N 30°51' W 062°31'0 0.1 27.8
2014-Jul-14 00:34N 30°51' W 062°31'0 1.4 27.8
2014-Jul-14 00:27N 30°51' W 062°32'0 0.9 27.8
2014-Jul-14 00:00N 30°51' W 062°31'111.4 27.8
2014-Jul-13 23:56N 30°52' W 062°30'1 3.5 27.8
2014-Jul-13 23:42N 30°52' W 062°31'0 0.0 27.9
2014-Jul-13 22:24N 30°52' W 062°31'0 1.7 27.9
2014-Jul-13 22:11N 30°52' W 062°31'0 3.1 27.9
2014-Jul-13 22:08N 30°52' W 062°31'1 0.6 28.0
2014-Jul-13 21:11N 30°53' W 062°31'0 0.0 28.0
2014-Jul-13 21:07N 30°53' W 062°31'0 0.1 28.0
2014-Jul-13 20:35N 30°53' W 062°31'0 0.3 28.0
2014-Jul-13 19:27N 30°53' W 062°31'0 0.6 28.1
2014-Jul-13 18:51N 30°52' W 062°32'0 0.0 28.1
2014-Jul-13 18:38N 30°52' W 062°32'0 2.5 28.1
2014-Jul-13 18:27N 30°52' W 062°32'0 0.0 28.0
2014-Jul-13 17:47N 30°52' W 062°32'0 0.1 27.9
2014-Jul-13 16:56N 30°52' W 062°32'1 0.5 27.9
2014-Jul-13 15:43N 30°52' W 062°32'0 0.1
2014-Jul-13 14:56N 30°52' W 062°32'1 1.5 27.7
2014-Jul-13 14:11N 30°51' W 062°33'1 0.8 27.7
2014-Jul-13 13:13N 30°51' W 062°32'1 0.9 27.6
2014-Jul-13 12:23N 30°51' W 062°33'1 0.4 27.6
2014-Jul-13 10:57N 30°50' W 062°32'0 0.4 27.6
2014-Jul-13 10:06N 30°50' W 062°31'0 1.5 27.6
2014-Jul-13 09:50N 30°50' W 062°32'0 1.2 27.6
2014-Jul-13 09:41N 30°50' W 062°32'0 0.3 27.6
2014-Jul-13 09:12N 30°50' W 062°32'0 8.1 27.6
2014-Jul-13 09:09N 30°50' W 062°31'0 0.1 27.6
2014-Jul-13 08:05N 30°50' W 062°31'1 0.7 27.6
2014-Jul-13 07:13N 30°49' W 062°31'1 7.5 27.6
2014-Jul-13 07:08N 30°49' W 062°30'0 0.1 27.6
2014-Jul-13 05:32N 30°49' W 062°30'218.1 27.6
2014-Jul-13 05:26N 30°49' W 062°28'0 0.0 27.7
2014-Jul-13 02:34N 30°49' W 062°28'1 7.6 27.7
2014-Jul-13 02:27N 30°49' W 062°27'0 7.3 27.7
2014-Jul-13 02:24N 30°49' W 062°28'0 0.0 27.7
2014-Jul-13 01:47N 30°49' W 062°28'   27.6
Track history (hours):
 
Tides and Currents Weather Stations Pressure Air Temp Water Temp Dewpoint Dewpoint Depression Visibility Wind Speed Wind Dir Waves Ship Positions

Drifting buoy 41503

Last reported at 2014-Jul-23 01:41 UTC. Time now 2014-Jul-23 03:19 UTC.
Position N 31°24' W 063°05'.

Water temperature 27.4 ° C

Date/timePositionNaut miles runAvg speedWind from/ knotsBaromVisibWave heightAir tempDewpointWater temp
2014-Jul-23 01:41N 31°24' W 063°05'0 0.1 27.4
2014-Jul-23 00:14N 31°24' W 063°05'0 1.8 27.5
2014-Jul-23 00:10N 31°24' W 063°04'0 0.3 27.5
2014-Jul-22 23:59N 31°24' W 063°04'110.0 27.5
2014-Jul-22 23:54N 31°25' W 063°04'0 0.2 27.5
2014-Jul-22 21:51N 31°25' W 063°03'1 0.8 27.9
2014-Jul-22 21:11N 31°25' W 063°03'0 1.8 27.9
2014-Jul-22 21:07N 31°25' W 063°03'1 1.1 27.9
2014-Jul-22 20:13N 31°26' W 063°03'0 4.7 27.9
2014-Jul-22 20:12N 31°26' W 063°03'0 0.2 27.9
2014-Jul-22 19:28N 31°26' W 063°03'0 0.5 27.9
2014-Jul-22 18:40N 31°27' W 063°04'0 2.0 28.0
2014-Jul-22 18:34N 31°27' W 063°03'110.6 28.0
2014-Jul-22 18:28N 31°28' W 063°04'0 0.0 28.0
2014-Jul-22 16:58N 31°28' W 063°04'1 0.3 28.0
2014-Jul-22 15:10N 31°28' W 063°05'0 0.2 27.8
2014-Jul-22 14:25N 31°28' W 063°05'1 4.8 27.7
2014-Jul-22 14:12N 31°28' W 063°06'0 0.1 27.7
2014-Jul-22 12:40N 31°28' W 063°06'1 0.3 27.4
2014-Jul-22 10:37N 31°28' W 063°07'0 1.2 27.3
2014-Jul-22 10:22N 31°27' W 063°07'0 0.2 27.4
2014-Jul-22 09:48N 31°27' W 063°07'1 4.2 27.4
2014-Jul-22 09:39N 31°27' W 063°06'0 0.2 27.4
2014-Jul-22 08:59N 31°27' W 063°06'0 0.3 27.4
2014-Jul-22 08:04N 31°26' W 063°06'0 3.9 27.5
2014-Jul-22 07:58N 31°26' W 063°06'0 0.0 27.5
2014-Jul-22 07:14N 31°26' W 063°06'1 9.1 27.6
2014-Jul-22 07:08N 31°26' W 063°05'0 0.2 27.6
2014-Jul-22 05:32N 31°26' W 063°05'2 0.8 27.9
2014-Jul-22 02:42N 31°25' W 063°03'0 0.4 28.2
2014-Jul-22 01:58N 31°25' W 063°03'0 0.2 28.2
2014-Jul-22 01:10N 31°25' W 063°02'0 0.0 28.4
2014-Jul-22 01:06N 31°25' W 063°02'0 4.9 28.4
2014-Jul-22 01:01N 31°25' W 063°02'0 0.0 28.4
2014-Jul-22 00:20N 31°25' W 063°02'133.8 28.3
2014-Jul-22 00:19N 31°25' W 063°01'0 0.0 28.2
2014-Jul-21 23:26N 31°25' W 063°01'0 1.5 28.9
2014-Jul-21 23:11N 31°26' W 063°01'1 0.6 29.0
2014-Jul-21 22:13N 31°26' W 063°01'0 0.5 29.9
2014-Jul-21 21:27N 31°27' W 063°01'0 3.9 30.3
2014-Jul-21 21:23N 31°26' W 063°01'0 0.0 30.3
2014-Jul-21 21:19N 31°26' W 063°01'1 1.0 30.3
2014-Jul-21 20:38N 31°27' W 063°00'012.6 30.6
2014-Jul-21 20:36N 31°27' W 063°00'0 0.0 30.6
2014-Jul-21 19:43N 31°27' W 063°00'0 0.3 30.6
2014-Jul-21 18:52N 31°28' W 063°01'0 1.9 30.8
2014-Jul-21 18:43N 31°28' W 063°00'121.6 30.8
2014-Jul-21 18:40N 31°29' W 063°01'0 0.0 30.6
2014-Jul-21 17:58N 31°29' W 063°01'0 0.1 30.5
2014-Jul-21 17:11N 31°29' W 063°01'0 0.2 30.0
2014-Jul-21 15:30N 31°29' W 063°01'0 4.7 29.4
2014-Jul-21 15:26N 31°29' W 063°01'0 0.0
2014-Jul-21 14:44N 31°29' W 063°01'0 1.9 28.4
2014-Jul-21 14:35N 31°29' W 063°02'0 0.0 28.4
2014-Jul-21 13:51N 31°29' W 063°02'0 0.3 28.1
2014-Jul-21 13:03N 31°28' W 063°02'0 1.2 27.7
2014-Jul-21 12:57N 31°28' W 063°02'0 0.2 27.6
2014-Jul-21 12:06N 31°28' W 063°02'1 0.7 27.3
2014-Jul-21 10:58N 31°28' W 063°03'0 0.0 27.1
2014-Jul-21 10:54N 31°28' W 063°03'1 4.1 27.1
2014-Jul-21 10:43N 31°27' W 063°02'0 0.0 27.1
2014-Jul-21 09:57N 31°27' W 063°02'0 0.0
2014-Jul-21 09:56N 31°27' W 063°02'110.4 27.1
2014-Jul-21 09:53N 31°27' W 063°03'0 0.0 27.1
2014-Jul-21 09:13N 31°27' W 063°03'150.1 27.1
2014-Jul-21 09:12N 31°26' W 063°02'0 0.0 27.2
2014-Jul-21 08:20N 31°26' W 063°02'0 0.4 27.2
2014-Jul-21 08:13N 31°26' W 063°02'014.8 27.2
2014-Jul-21 08:11N 31°26' W 063°02'0 0.0 27.2
2014-Jul-21 07:36N 31°26' W 063°02'0 0.5 27.2
2014-Jul-21 07:27N 31°26' W 063°02'110.1 27.3
2014-Jul-21 07:19N 31°26' W 063°00'0 0.0 27.3
2014-Jul-21 05:42N 31°26' W 063°00'260.0 27.4
2014-Jul-21 05:40N 31°25' W 062°58'0 0.0 27.4
2014-Jul-21 03:08N 31°25' W 062°58'0 5.3 27.6
2014-Jul-21 03:04N 31°25' W 062°58'0 0.5 27.6
2014-Jul-21 02:21N 31°26' W 062°57'1 5.9 27.6
2014-Jul-21 02:11N 31°26' W 062°56'0 0.1 27.6
2014-Jul-21 01:27N 31°26' W 062°56'0 1.4 27.7
2014-Jul-21 01:22N 31°26' W 062°56'0 0.0 27.7
2014-Jul-21 00:42N 31°26' W 062°56'138.4 27.7
2014-Jul-21 00:41N 31°26' W 062°55'0 0.0 27.7
2014-Jul-20 23:48N 31°26' W 062°55'0 1.8 27.9
2014-Jul-20 23:41N 31°26' W 062°55'1 1.0 27.9
2014-Jul-20 22:34N 31°27' W 062°55'0 0.3 28.1
2014-Jul-20 21:58N 31°27' W 062°55'0 0.3 28.3
2014-Jul-20 21:28N 31°27' W 062°55'1 9.2 28.4
2014-Jul-20 21:24N 31°27' W 062°56'0 0.0 28.4
2014-Jul-20 20:58N 31°27' W 062°56'1 0.7 28.4
2014-Jul-20 19:54N 31°28' W 062°55'0 0.5 28.2
2014-Jul-20 19:19N 31°28' W 062°56'0 0.3 28.1
2014-Jul-20 18:56N 31°28' W 062°55'1 8.1 27.9
2014-Jul-20 18:52N 31°29' W 062°55'0 0.0 27.9
2014-Jul-20 18:11N 31°29' W 062°55'0 0.3 27.9
2014-Jul-20 17:23N 31°29' W 062°56'0 2.0 27.6
2014-Jul-20 17:13N 31°29' W 062°56'0 0.2
2014-Jul-20 15:49N 31°29' W 062°56'0 0.4 27.4
2014-Jul-20 15:39N 31°29' W 062°56'0 0.8 27.4
2014-Jul-20 15:05N 31°29' W 062°56'1 4.1 27.3
2014-Jul-20 14:54N 31°28' W 062°56'0 0.0 27.3
2014-Jul-20 14:13N 31°28' W 062°56'1 0.7 27.2
2014-Jul-20 13:21N 31°28' W 062°56'1 4.2 27.1
2014-Jul-20 13:13N 31°27' W 062°56'0 0.2
2014-Jul-20 12:27N 31°27' W 062°56'0 0.3 27.0
2014-Jul-20 11:24N 31°27' W 062°57'1 4.2 26.9
2014-Jul-20 11:16N 31°27' W 062°56'0 0.0 24.2
2014-Jul-20 10:11N 31°27' W 062°57'0 3.8 26.9
2014-Jul-20 10:05N 31°27' W 062°56'0 9.3 26.9
2014-Jul-20 10:02N 31°26' W 062°57'0 0.0 26.9
2014-Jul-20 09:45N 31°26' W 062°57'0 0.8 26.9
2014-Jul-20 09:39N 31°26' W 062°57'114.1 26.9
2014-Jul-20 09:35N 31°26' W 062°56'0 0.0 26.9
2014-Jul-20 08:27N 31°26' W 062°56'0 1.3 27.0
2014-Jul-20 08:05N 31°26' W 062°55'0 6.0 27.0
2014-Jul-20 08:02N 31°26' W 062°55'0 0.3 27.0
2014-Jul-20 07:39N 31°26' W 062°55'1 8.2 27.0
2014-Jul-20 07:33N 31°25' W 062°54'0 9.5 27.0
2014-Jul-20 07:31N 31°25' W 062°54'0 0.0 27.0
2014-Jul-20 06:47N 31°25' W 062°54'0 0.1 27.0
2014-Jul-20 05:54N 31°25' W 062°54'342.6 27.1
2014-Jul-20 05:50N 31°24' W 062°51'1 0.2 27.1
2014-Jul-20 01:42N 31°25' W 062°50'0 0.0 27.3
2014-Jul-20 01:04N 31°25' W 062°50'0 2.4 27.4
2014-Jul-20 01:02N 31°25' W 062°50'1 6.9 27.4
2014-Jul-20 00:55N 31°25' W 062°49'0 0.0 27.4
2014-Jul-20 00:11N 31°25' W 062°49'0 0.0 27.3
2014-Jul-20 00:10N 31°25' W 062°49'1 9.0 27.3
2014-Jul-20 00:06N 31°26' W 062°49'0 0.1 27.3
2014-Jul-19 22:28N 31°26' W 062°49'1 1.0 27.4
2014-Jul-19 21:43N 31°26' W 062°48'0 0.7 27.4
2014-Jul-19 21:27N 31°26' W 062°48'1 0.5 27.5
2014-Jul-19 19:58N 31°27' W 062°49'1 3.2 27.5
2014-Jul-19 19:46N 31°27' W 062°49'0 0.0 27.5
2014-Jul-19 19:12N 31°27' W 062°49'0 1.5
2014-Jul-19 19:10N 31°27' W 062°49'0 0.3 27.4
2014-Jul-19 18:23N 31°27' W 062°49'0 0.2 27.4
2014-Jul-19 17:33N 31°27' W 062°49'0 0.6 27.3
2014-Jul-19 17:28N 31°27' W 062°49'0 0.3 27.3
2014-Jul-19 16:08N 31°27' W 062°50'0 0.0 27.2
2014-Jul-19 15:51N 31°27' W 062°50'0 0.9 27.1
2014-Jul-19 15:24N 31°27' W 062°50'0 2.7 27.1
2014-Jul-19 15:17N 31°27' W 062°50'0 0.0 27.1
2014-Jul-19 14:33N 31°27' W 062°50'1 0.8 26.9
2014-Jul-19 13:47N 31°26' W 062°50'1 3.0 26.9
2014-Jul-19 13:35N 31°26' W 062°50'0 0.0 26.9
2014-Jul-19 12:47N 31°26' W 062°50'114.0 26.8
2014-Jul-19 12:43N 31°25' W 062°51'0 0.0
2014-Jul-19 11:52N 31°25' W 062°51'0 0.0 26.7
2014-Jul-19 11:46N 31°25' W 062°51'1 0.6 26.7
2014-Jul-19 10:22N 31°24' W 062°50'1 4.4 26.7
2014-Jul-19 10:14N 31°24' W 062°49'0 0.0 26.7
2014-Jul-19 10:11N 31°24' W 062°49'0 1.4 26.7
2014-Jul-19 10:04N 31°24' W 062°50'1 0.8 26.7
2014-Jul-19 08:42N 31°23' W 062°49'0 0.8 26.7
2014-Jul-19 08:38N 31°23' W 062°49'0 2.0 26.7
2014-Jul-19 08:33N 31°23' W 062°49'0 0.0 26.7
2014-Jul-19 08:26N 31°23' W 062°49'1 1.2 26.7
2014-Jul-19 07:49N 31°23' W 062°48'0 3.8 26.7
2014-Jul-19 07:45N 31°23' W 062°48'111.3 26.7
2014-Jul-19 07:42N 31°23' W 062°47'0 0.1 26.7
2014-Jul-19 06:58N 31°23' W 062°47'0 0.4 26.7
2014-Jul-19 06:09N 31°22' W 062°47'0 4.6 26.8
2014-Jul-19 06:05N 31°22' W 062°46'3 1.5 26.8
2014-Jul-19 04:25N 31°22' W 062°43'0 0.0 26.8
2014-Jul-19 02:59N 31°22' W 062°43'0 0.0 26.8
2014-Jul-19 02:11N 31°22' W 062°43'0 1.0 26.9
2014-Jul-19 02:04N 31°22' W 062°44'0 0.4 26.9
2014-Jul-19 01:24N 31°22' W 062°44'0 0.0 26.9
2014-Jul-19 01:23N 31°22' W 062°44'1 1.5 26.9
2014-Jul-19 00:39N 31°23' W 062°43'120.1 26.9
2014-Jul-19 00:37N 31°23' W 062°42'1 3.8 26.9
2014-Jul-19 00:27N 31°23' W 062°43'0 0.0 26.9
2014-Jul-19 00:26N 31°23' W 062°43'1 0.8 26.9
2014-Jul-18 23:41N 31°23' W 062°42'0 0.0 26.9
2014-Jul-18 23:05N 31°23' W 062°42'0 0.3 26.9
2014-Jul-18 21:53N 31°23' W 062°42'0 0.0 26.9
2014-Jul-18 21:52N 31°23' W 062°42'1 0.3 26.9
2014-Jul-18 20:12N 31°24' W 062°42'024.6 26.9
2014-Jul-18 20:11N 31°24' W 062°43'0 2.1 26.9
2014-Jul-18 20:05N 31°24' W 062°43'0 0.0 26.9
2014-Jul-18 19:24N 31°24' W 062°43'0 4.1 26.9
2014-Jul-18 19:21N 31°24' W 062°43'0 0.1 26.9
2014-Jul-18 18:35N 31°24' W 062°43'1 0.7 26.9
2014-Jul-18 17:45N 31°24' W 062°44'0 0.2 26.9
2014-Jul-18 16:03N 31°23' W 062°43'0 1.5 26.7
2014-Jul-18 15:45N 31°23' W 062°43'0 0.8 26.7
2014-Jul-18 15:39N 31°23' W 062°43'0 0.6 26.7
2014-Jul-18 14:54N 31°23' W 062°44'0 0.6 26.6
2014-Jul-18 14:07N 31°22' W 062°44'212.4 26.6
2014-Jul-18 13:57N 31°20' W 062°43'0 0.1 26.6
2014-Jul-18 10:36N 31°20' W 062°43'0 0.0 26.5
2014-Jul-18 10:33N 31°20' W 062°43'0 3.2 26.5
2014-Jul-18 10:27N 31°20' W 062°43'172.7 26.5
2014-Jul-18 10:26N 31°19' W 062°43'0 0.0 26.5
2014-Jul-18 09:09N 31°19' W 062°43'1 3.2 26.5
2014-Jul-18 08:55N 31°19' W 062°42'1 8.2 26.5
2014-Jul-18 08:51N 31°19' W 062°42'0 0.0 26.5
2014-Jul-18 08:45N 31°19' W 062°42'0 0.0 26.5
2014-Jul-18 08:42N 31°19' W 062°42'0 0.0 26.5
2014-Jul-18 08:01N 31°19' W 062°42'0 3.9 26.5
2014-Jul-18 07:57N 31°19' W 062°42'1 8.3 26.5
2014-Jul-18 07:53N 31°18' W 062°41'0 0.0 26.5
2014-Jul-18 07:07N 31°18' W 062°41'013.3 26.5
2014-Jul-18 07:05N 31°18' W 062°41'0 0.0 26.5
2014-Jul-18 06:24N 31°18' W 062°41'0 0.0 26.6
2014-Jul-18 06:21N 31°18' W 062°41'1 9.6 26.6
2014-Jul-18 06:12N 31°18' W 062°39'0 0.0 26.6
2014-Jul-18 04:37N 31°18' W 062°39'1 0.7 26.6
2014-Jul-18 02:27N 31°18' W 062°38'111.3 26.6
2014-Jul-18 02:24N 31°18' W 062°37'0 0.0 26.6
2014-Jul-18 01:43N 31°18' W 062°37'0 0.3 26.6
2014-Jul-18 00:51N 31°18' W 062°37'0 0.0 26.6
2014-Jul-18 00:48N 31°18' W 062°37'0 0.2 26.6
2014-Jul-18 00:04N 31°18' W 062°37'0 2.4 26.7
2014-Jul-17 23:58N 31°18' W 062°37'0 2.6 26.7
2014-Jul-17 23:55N 31°18' W 062°37'0 0.0 26.7
2014-Jul-17 23:35N 31°18' W 062°37'0 0.6 26.7
2014-Jul-17 23:09N 31°18' W 062°37'0 0.0 26.7
2014-Jul-17 22:13N 31°18' W 062°37'1 4.8 26.7
2014-Jul-17 22:05N 31°18' W 062°38'1 3.5 26.7
2014-Jul-17 21:56N 31°18' W 062°37'1 0.4 26.7
2014-Jul-17 20:36N 31°18' W 062°38'0 0.0 26.8
2014-Jul-17 20:27N 31°18' W 062°38'0 6.2 26.8
2014-Jul-17 20:23N 31°18' W 062°38'1 0.7 26.8
2014-Jul-17 19:30N 31°17' W 062°38'0 0.0 26.8
2014-Jul-17 18:52N 31°17' W 062°38'112.7 26.8
2014-Jul-17 18:46N 31°17' W 062°37'1 0.9 26.8
2014-Jul-17 17:55N 31°17' W 062°37'2 1.0 26.7
2014-Jul-17 16:13N 31°16' W 062°39'1 0.7 26.6
2014-Jul-17 15:12N 31°15' W 062°38'0 0.5 26.6
2014-Jul-17 14:27N 31°15' W 062°38'1 0.8 26.6
2014-Jul-17 12:37N 31°14' W 062°38'0 0.0 26.6
2014-Jul-17 11:19N 31°14' W 062°38'0 0.8 26.6
2014-Jul-17 11:00N 31°13' W 062°38'0 2.1 26.6
2014-Jul-17 10:50N 31°14' W 062°38'0 0.9 26.6
2014-Jul-17 10:42N 31°14' W 062°38'114.5 26.6
2014-Jul-17 10:38N 31°13' W 062°37'0 0.3 26.6
2014-Jul-17 09:18N 31°12' W 062°37'0 0.9 26.6
2014-Jul-17 09:07N 31°13' W 062°37'1 2.6 26.6
2014-Jul-17 08:54N 31°12' W 062°37'0 0.0 26.6
2014-Jul-17 08:12N 31°12' W 062°37'0 3.3 26.6
2014-Jul-17 08:09N 31°12' W 062°37'0 6.7 26.6
2014-Jul-17 08:05N 31°12' W 062°37'0 3.6 26.6
2014-Jul-17 07:59N 31°12' W 062°37'0 0.6 26.6
2014-Jul-17 07:21N 31°12' W 062°37'111.3 26.6
2014-Jul-17 07:18N 31°12' W 062°36'110.8 26.6
2014-Jul-17 07:14N 31°11' W 062°36'0 0.2 26.6
2014-Jul-17 06:27N 31°11' W 062°36'0 4.9 26.6
2014-Jul-17 06:24N 31°11' W 062°36'0 0.0 26.6
2014-Jul-17 06:21N 31°11' W 062°36'0 0.0 26.6
2014-Jul-17 04:49N 31°11' W 062°36'1 0.3 26.6
2014-Jul-17 02:51N 31°10' W 062°35'0 5.7 26.6
2014-Jul-17 02:46N 31°10' W 062°35'0 0.3 26.6
2014-Jul-17 02:05N 31°10' W 062°35'0 0.1 26.6
2014-Jul-17 01:12N 31°10' W 062°35'0 1.9 26.6
2014-Jul-17 01:04N 31°10' W 062°34'0 0.2 26.6
2014-Jul-17 00:24N 31°10' W 062°35'021.9 26.6
2014-Jul-17 00:23N 31°10' W 062°34'1 1.8 26.6
2014-Jul-17 00:06N 31°11' W 062°35'0 0.0 26.6
2014-Jul-16 23:27N 31°11' W 062°35'0 0.6 26.6
2014-Jul-16 22:39N 31°10' W 062°35'0 0.8 26.7
2014-Jul-16 22:27N 31°10' W 062°34'1 0.6 26.7
2014-Jul-16 21:02N 31°10' W 062°35'1 3.2 26.7
2014-Jul-16 20:45N 31°10' W 062°35'0 0.0 26.7
2014-Jul-16 20:39N 31°10' W 062°35'0 0.0 26.7
2014-Jul-16 20:36N 31°10' W 062°35'0 0.4 26.7
2014-Jul-16 19:44N 31°10' W 062°35'0 0.6 26.7
2014-Jul-16 19:20N 31°10' W 062°35'1 1.6 26.7
2014-Jul-16 18:58N 31°10' W 062°35'1 5.7 26.7
2014-Jul-16 18:51N 31°10' W 062°35'1 1.0 26.7
2014-Jul-16 18:07N 31°10' W 062°35'1 0.4 26.7
2014-Jul-16 16:25N 31°10' W 062°36'114.4 26.7
2014-Jul-16 16:20N 31°09' W 062°37'0 0.5 26.7
2014-Jul-16 15:33N 31°09' W 062°37'0 0.6 26.7
2014-Jul-16 14:47N 31°09' W 062°36'1 0.7 26.7
2014-Jul-16 13:55N 31°09' W 062°37'0 0.2 26.7
2014-Jul-16 13:05N 31°09' W 062°37'1 9.0 26.7
2014-Jul-16 13:00N 31°08' W 062°37'0 0.4 26.7
2014-Jul-16 12:10N 31°08' W 062°38'0 0.9 26.7
2014-Jul-16 11:48N 31°08' W 062°37'0 0.8 26.7
2014-Jul-16 11:23N 31°08' W 062°38'0 0.3 26.7
2014-Jul-16 10:54N 31°08' W 062°38'1 7.2 26.7
2014-Jul-16 10:49N 31°07' W 062°37'0 0.0 26.7
2014-Jul-16 10:11N 31°07' W 062°37'131.3 26.7
2014-Jul-16 10:10N 31°07' W 062°38'0 0.0 26.7
2014-Jul-16 09:43N 31°07' W 062°38'0 3.6 26.8
2014-Jul-16 09:37N 31°07' W 062°38'0 0.0 26.8
2014-Jul-16 09:34N 31°07' W 062°38'0 0.6 26.8
2014-Jul-16 09:13N 31°07' W 062°37'1 5.8 26.8
2014-Jul-16 09:07N 31°06' W 062°38'0 0.2 26.8
2014-Jul-16 08:21N 31°06' W 062°38'1 0.8 26.8
2014-Jul-16 07:33N 31°06' W 062°38'0 4.8 26.8
2014-Jul-16 07:30N 31°05' W 062°37'1 0.7 26.8
2014-Jul-16 06:43N 31°05' W 062°38'1 9.8 26.9
2014-Jul-16 06:34N 31°04' W 062°38'0 0.0 26.9
2014-Jul-16 05:02N 31°04' W 062°38'0 1.0 26.9
2014-Jul-16 04:59N 31°04' W 062°38'1 0.4 26.9
2014-Jul-16 03:10N 31°03' W 062°37'0 6.7 26.9
2014-Jul-16 03:06N 31°03' W 062°36'0 0.0 26.9
2014-Jul-16 02:25N 31°03' W 062°36'1 1.0 26.9
2014-Jul-16 01:27N 31°03' W 062°35'144.5 26.9
2014-Jul-16 01:26N 31°03' W 062°36'0 0.0 26.9
2014-Jul-16 00:46N 31°03' W 062°36'0 5.9 26.9
2014-Jul-16 00:44N 31°03' W 062°36'1 3.4 26.9
2014-Jul-16 00:33N 31°03' W 062°36'0 0.3 26.9
2014-Jul-15 23:52N 31°02' W 062°36'0 0.5 26.9
2014-Jul-15 22:57N 31°03' W 062°36'0 0.1 26.9
2014-Jul-15 21:26N 31°03' W 062°36'0 0.3 27.0
2014-Jul-15 20:51N 31°03' W 062°36'0 1.0 27.0
2014-Jul-15 20:45N 31°03' W 062°36'0 1.0 27.0
2014-Jul-15 20:38N 31°03' W 062°36'0 0.0 27.0
2014-Jul-15 19:46N 31°03' W 062°36'1 1.0 27.0
2014-Jul-15 19:10N 31°03' W 062°36'0 0.3 27.1
2014-Jul-15 18:13N 31°03' W 062°37'1 0.4 27.1
2014-Jul-15 16:36N 31°03' W 062°37'1 0.9 27.2
2014-Jul-15 15:53N 31°03' W 062°38'1 0.7 27.2
2014-Jul-15 15:08N 31°03' W 062°38'1 3.3 27.2
2014-Jul-15 14:58N 31°02' W 062°38'0 0.0 27.2
2014-Jul-15 14:13N 31°02' W 062°38'1 0.8 27.2
2014-Jul-15 13:27N 31°02' W 062°39'1 0.7 27.3
2014-Jul-15 12:29N 31°01' W 062°40'3 3.4 27.3
2014-Jul-15 11:44N 30°59' W 062°39'0 0.0 27.3
2014-Jul-15 11:03N 30°59' W 062°39'0 0.0 27.3
2014-Jul-15 10:41N 30°59' W 062°39'0 0.6 27.3
2014-Jul-15 10:12N 30°59' W 062°39'0 0.0 27.3
2014-Jul-15 10:09N 30°59' W 062°39'0 1.5 27.3
2014-Jul-15 10:07N 30°59' W 062°39'0 2.8 27.3
2014-Jul-15 10:02N 30°59' W 062°39'0 0.0 27.3
2014-Jul-15 09:26N 30°59' W 062°39'0 5.2 27.3
2014-Jul-15 09:21N 30°59' W 062°39'1 2.2 27.3
2014-Jul-15 09:02N 30°58' W 062°39'0 0.7 27.3
2014-Jul-15 08:33N 30°58' W 062°39'1 4.0 27.4
2014-Jul-15 08:25N 30°58' W 062°38'1 0.8 27.4
2014-Jul-15 07:41N 30°58' W 062°39'1 0.8 27.4
2014-Jul-15 06:53N 30°58' W 062°38'1 7.3 27.4
2014-Jul-15 06:43N 30°57' W 062°37'0 0.0 27.4
2014-Jul-15 05:11N 30°57' W 062°37'2 0.5 27.4
2014-Jul-15 01:46N 30°57' W 062°35'0 0.1 27.5
2014-Jul-15 01:06N 30°57' W 062°36'029.8 27.5
2014-Jul-15 01:05N 30°57' W 062°35'0 0.2 27.5
2014-Jul-15 00:12N 30°57' W 062°35'1 0.7 27.5
2014-Jul-14 23:27N 30°57' W 062°35'0 1.4 27.5
2014-Jul-14 23:19N 30°57' W 062°35'0 0.1
2014-Jul-14 21:49N 30°57' W 062°35'0 0.0 27.6
2014-Jul-14 21:44N 30°57' W 062°35'0 0.4 27.6
2014-Jul-14 21:01N 30°57' W 062°35'0 0.0 27.5
2014-Jul-14 20:57N 30°57' W 062°35'0 0.3 27.5
2014-Jul-14 20:10N 30°57' W 062°35'0 0.4 27.6
2014-Jul-14 19:22N 30°58' W 062°35'0 0.0 27.6
2014-Jul-14 19:19N 30°58' W 062°35'0 0.1 27.6
2014-Jul-14 18:27N 30°58' W 062°35'0 1.2 27.5
2014-Jul-14 18:22N 30°58' W 062°35'1 0.4 27.5
2014-Jul-14 16:47N 30°58' W 062°36'0 0.1 27.4
2014-Jul-14 16:11N 30°58' W 062°35'1 0.7 27.4
2014-Jul-14 15:27N 30°57' W 062°36'0 1.2 27.4
2014-Jul-14 15:21N 30°57' W 062°36'0 0.3 27.4
2014-Jul-14 14:37N 30°57' W 062°36'0 0.5 27.3
2014-Jul-14 13:49N 30°57' W 062°36'1 8.5 27.3
2014-Jul-14 13:39N 30°56' W 062°37'1 1.3 27.3
2014-Jul-14 12:55N 30°56' W 062°36'114.7 27.3
2014-Jul-14 12:51N 30°56' W 062°37'0 0.0 27.3
2014-Jul-14 11:13N 30°56' W 062°37'0 0.6 27.3
2014-Jul-14 10:35N 30°55' W 062°37'0 0.0 27.3
2014-Jul-14 10:33N 30°55' W 062°37'0 3.6 27.3
2014-Jul-14 10:31N 30°55' W 062°37'113.0 27.3
2014-Jul-14 10:26N 30°54' W 062°37'0 0.5 27.3
2014-Jul-14 09:35N 30°54' W 062°36'0 0.0 27.4
2014-Jul-14 09:31N 30°54' W 062°36'0 0.0 27.4
2014-Jul-14 08:47N 30°54' W 062°36'1 6.2 27.5
2014-Jul-14 08:40N 30°53' W 062°36'0 0.5 27.5
2014-Jul-14 07:52N 30°53' W 062°37'114.8 27.6
2014-Jul-14 07:49N 30°53' W 062°36'0 0.0 27.6
2014-Jul-14 07:05N 30°53' W 062°36'110.3 27.6
2014-Jul-14 06:57N 30°52' W 062°35'0 0.0 27.6
2014-Jul-14 05:22N 30°52' W 062°35'214.4 27.6
2014-Jul-14 05:13N 30°51' W 062°33'0 0.0 27.6
2014-Jul-14 03:00N 30°51' W 062°33'0 0.0 27.7
2014-Jul-14 02:12N 30°51' W 062°33'0 1.5 27.8
2014-Jul-14 02:08N 30°51' W 062°32'1 1.2 27.8
2014-Jul-14 01:25N 30°51' W 062°31'0 0.1 27.8
2014-Jul-14 00:34N 30°51' W 062°31'0 1.4 27.8
2014-Jul-14 00:27N 30°51' W 062°32'0 0.9 27.8
2014-Jul-14 00:00N 30°51' W 062°31'111.4 27.8
2014-Jul-13 23:56N 30°52' W 062°30'1 3.5 27.8
2014-Jul-13 23:42N 30°52' W 062°31'0 0.0 27.9
2014-Jul-13 22:24N 30°52' W 062°31'0 1.7 27.9
2014-Jul-13 22:11N 30°52' W 062°31'0 3.1 27.9
2014-Jul-13 22:08N 30°52' W 062°31'1 0.6 28.0
2014-Jul-13 21:11N 30°53' W 062°31'0 0.0 28.0
2014-Jul-13 21:07N 30°53' W 062°31'0 0.1 28.0
2014-Jul-13 20:35N 30°53' W 062°31'0 0.3 28.0
2014-Jul-13 19:27N 30°53' W 062°31'0 0.6 28.1
2014-Jul-13 18:51N 30°52' W 062°32'0 0.0 28.1
2014-Jul-13 18:38N 30°52' W 062°32'0 2.5 28.1
2014-Jul-13 18:27N 30°52' W 062°32'0 0.0 28.0
2014-Jul-13 17:47N 30°52' W 062°32'0 0.1 27.9
2014-Jul-13 16:56N 30°52' W 062°32'1 0.5 27.9
2014-Jul-13 15:43N 30°52' W 062°32'0 0.1
2014-Jul-13 14:56N 30°52' W 062°32'1 1.5 27.7
2014-Jul-13 14:11N 30°51' W 062°33'1 0.8 27.7
2014-Jul-13 13:13N 30°51' W 062°32'1 0.9 27.6
2014-Jul-13 12:23N 30°51' W 062°33'1 0.4 27.6
2014-Jul-13 10:57N 30°50' W 062°32'0 0.4 27.6
2014-Jul-13 10:06N 30°50' W 062°31'0 1.5 27.6
2014-Jul-13 09:50N 30°50' W 062°32'0 1.2 27.6
2014-Jul-13 09:41N 30°50' W 062°32'0 0.3 27.6
2014-Jul-13 09:12N 30°50' W 062°32'0 8.1 27.6
2014-Jul-13 09:09N 30°50' W 062°31'0 0.1 27.6
2014-Jul-13 08:05N 30°50' W 062°31'1 0.7 27.6
2014-Jul-13 07:13N 30°49' W 062°31'1 7.5 27.6
2014-Jul-13 07:08N 30°49' W 062°30'0 0.1 27.6
2014-Jul-13 05:32N 30°49' W 062°30'218.1 27.6
2014-Jul-13 05:26N 30°49' W 062°28'0 0.0 27.7
2014-Jul-13 02:34N 30°49' W 062°28'1 7.6 27.7
2014-Jul-13 02:27N 30°49' W 062°27'0 7.3 27.7
2014-Jul-13 02:24N 30°49' W 062°28'0 0.0 27.7
2014-Jul-13 01:47N 30°49' W 062°28'   27.6

Dump ship's entire track history